sensor_id;sensor_type;location;lat;lon;timestamp;temperature;humidity
13458;DHT22;6801;53.018;11.560;2023-03-19T00:01:35;10.20;75.00
13458;DHT22;6801;53.018;11.560;2023-03-19T00:04:03;10.20;75.00
13458;DHT22;6801;53.018;11.560;2023-03-19T00:06:30;10.20;74.90
13458;DHT22;6801;53.018;11.560;2023-03-19T00:08:57;10.20;75.10
13458;DHT22;6801;53.018;11.560;2023-03-19T00:11:24;10.10;75.10
13458;DHT22;6801;53.018;11.560;2023-03-19T00:13:51;10.10;75.30
13458;DHT22;6801;53.018;11.560;2023-03-19T00:16:18;10.10;75.40
13458;DHT22;6801;53.018;11.560;2023-03-19T00:18:45;10.10;75.30
13458;DHT22;6801;53.018;11.560;2023-03-19T00:21:14;10.10;75.30
13458;DHT22;6801;53.018;11.560;2023-03-19T00:23:41;10.00;75.30
13458;DHT22;6801;53.018;11.560;2023-03-19T00:26:08;10.10;75.30
13458;DHT22;6801;53.018;11.560;2023-03-19T00:28:35;10.10;75.30
13458;DHT22;6801;53.018;11.560;2023-03-19T00:31:07;10.10;75.40
13458;DHT22;6801;53.018;11.560;2023-03-19T00:33:34;10.10;75.40
13458;DHT22;6801;53.018;11.560;2023-03-19T00:36:02;10.10;75.40
13458;DHT22;6801;53.018;11.560;2023-03-19T00:38:31;10.10;75.40
13458;DHT22;6801;53.018;11.560;2023-03-19T00:40:58;10.00;75.50
13458;DHT22;6801;53.018;11.560;2023-03-19T00:43:25;10.00;75.70
13458;DHT22;6801;53.018;11.560;2023-03-19T00:45:52;10.00;75.60
13458;DHT22;6801;53.018;11.560;2023-03-19T00:48:20;10.00;75.60
13458;DHT22;6801;53.018;11.560;2023-03-19T00:50:47;10.00;75.50
13458;DHT22;6801;53.018;11.560;2023-03-19T00:53:14;10.00;75.60
13458;DHT22;6801;53.018;11.560;2023-03-19T00:55:42;10.00;75.70
13458;DHT22;6801;53.018;11.560;2023-03-19T00:58:09;10.00;75.90
13458;DHT22;6801;53.018;11.560;2023-03-19T01:00:37;10.00;75.90
13458;DHT22;6801;53.018;11.560;2023-03-19T01:03:04;10.00;75.90
13458;DHT22;6801;53.018;11.560;2023-03-19T01:05:33;10.00;76.00
13458;DHT22;6801;53.018;11.560;2023-03-19T01:08:00;10.00;76.20
13458;DHT22;6801;53.018;11.560;2023-03-19T01:10:29;10.00;76.40
13458;DHT22;6801;53.018;11.560;2023-03-19T01:13:00;10.00;76.40
13458;DHT22;6801;53.018;11.560;2023-03-19T01:15:27;10.00;76.70
13458;DHT22;6801;53.018;11.560;2023-03-19T01:17:54;10.00;76.80
13458;DHT22;6801;53.018;11.560;2023-03-19T01:20:21;10.00;76.70
13458;DHT22;6801;53.018;11.560;2023-03-19T01:22:48;10.00;76.70
13458;DHT22;6801;53.018;11.560;2023-03-19T01:25:16;10.00;76.80
13458;DHT22;6801;53.018;11.560;2023-03-19T01:27:56;10.00;76.60
13458;DHT22;6801;53.018;11.560;2023-03-19T01:30:25;10.00;76.60
13458;DHT22;6801;53.018;11.560;2023-03-19T01:33:13;10.00;76.70
13458;DHT22;6801;53.018;11.560;2023-03-19T01:36:00;10.00;76.80
13458;DHT22;6801;53.018;11.560;2023-03-19T01:38:37;10.10;76.80
13458;DHT22;6801;53.018;11.560;2023-03-19T01:41:08;10.00;77.00
13458;DHT22;6801;53.018;11.560;2023-03-19T01:43:36;10.10;77.10
13458;DHT22;6801;53.018;11.560;2023-03-19T01:46:25;10.10;77.20
13458;DHT22;6801;53.018;11.560;2023-03-19T01:49:16;10.10;77.30
13458;DHT22;6801;53.018;11.560;2023-03-19T01:51:50;10.10;77.30
13458;DHT22;6801;53.018;11.560;2023-03-19T01:54:39;10.10;77.40
13458;DHT22;6801;53.018;11.560;2023-03-19T01:57:35;10.10;77.40
13458;DHT22;6801;53.018;11.560;2023-03-19T02:00:22;10.10;77.50
13458;DHT22;6801;53.018;11.560;2023-03-19T02:02:57;10.10;77.50
13458;DHT22;6801;53.018;11.560;2023-03-19T02:05:45;10.10;77.70
13458;DHT22;6801;53.018;11.560;2023-03-19T02:08:15;10.10;77.70
13458;DHT22;6801;53.018;11.560;2023-03-19T02:10:45;10.10;77.80
13458;DHT22;6801;53.018;11.560;2023-03-19T02:13:13;10.10;77.80
13458;DHT22;6801;53.018;11.560;2023-03-19T02:15:40;10.10;77.90
13458;DHT22;6801;53.018;11.560;2023-03-19T02:18:09;10.10;77.70
13458;DHT22;6801;53.018;11.560;2023-03-19T02:20:43;10.10;77.80
13458;DHT22;6801;53.018;11.560;2023-03-19T02:23:20;10.10;78.30
13458;DHT22;6801;53.018;11.560;2023-03-19T02:26:02;10.10;78.50
13458;DHT22;6801;53.018;11.560;2023-03-19T02:28:32;10.20;78.60
13458;DHT22;6801;53.018;11.560;2023-03-19T02:30:59;10.20;78.50
13458;DHT22;6801;53.018;11.560;2023-03-19T02:33:28;10.20;78.70
13458;DHT22;6801;53.018;11.560;2023-03-19T02:35:55;10.20;78.70
13458;DHT22;6801;53.018;11.560;2023-03-19T02:38:24;10.20;78.70
13458;DHT22;6801;53.018;11.560;2023-03-19T02:40:57;10.20;78.80
13458;DHT22;6801;53.018;11.560;2023-03-19T02:43:27;10.20;78.90
13458;DHT22;6801;53.018;11.560;2023-03-19T02:45:55;10.20;79.10
13458;DHT22;6801;53.018;11.560;2023-03-19T02:48:23;10.20;79.20
13458;DHT22;6801;53.018;11.560;2023-03-19T02:51:10;10.20;79.20
13458;DHT22;6801;53.018;11.560;2023-03-19T02:53:38;10.20;79.40
13458;DHT22;6801;53.018;11.560;2023-03-19T02:56:06;10.20;79.40
13458;DHT22;6801;53.018;11.560;2023-03-19T02:58:34;10.30;79.30
13458;DHT22;6801;53.018;11.560;2023-03-19T03:01:01;10.30;79.30
13458;DHT22;6801;53.018;11.560;2023-03-19T03:03:28;10.30;79.30
13458;DHT22;6801;53.018;11.560;2023-03-19T03:05:56;10.30;79.30
13458;DHT22;6801;53.018;11.560;2023-03-19T03:08:23;10.20;79.30
13458;DHT22;6801;53.018;11.560;2023-03-19T03:10:50;10.20;79.40
13458;DHT22;6801;53.018;11.560;2023-03-19T03:13:16;10.20;79.20
13458;DHT22;6801;53.018;11.560;2023-03-19T03:15:45;10.20;79.10
13458;DHT22;6801;53.018;11.560;2023-03-19T03:18:12;10.20;79.10
13458;DHT22;6801;53.018;11.560;2023-03-19T03:20:39;10.20;79.30
13458;DHT22;6801;53.018;11.560;2023-03-19T03:23:06;10.20;79.30
13458;DHT22;6801;53.018;11.560;2023-03-19T03:25:34;10.20;79.30
13458;DHT22;6801;53.018;11.560;2023-03-19T03:28:01;10.20;79.20
13458;DHT22;6801;53.018;11.560;2023-03-19T03:30:28;10.20;79.20
13458;DHT22;6801;53.018;11.560;2023-03-19T03:32:56;10.20;79.20
13458;DHT22;6801;53.018;11.560;2023-03-19T03:35:23;10.20;79.20
13458;DHT22;6801;53.018;11.560;2023-03-19T03:37:50;10.20;79.10
13458;DHT22;6801;53.018;11.560;2023-03-19T03:40:17;10.20;79.10
13458;DHT22;6801;53.018;11.560;2023-03-19T03:42:45;10.10;79.30
13458;DHT22;6801;53.018;11.560;2023-03-19T03:45:12;10.10;79.50
13458;DHT22;6801;53.018;11.560;2023-03-19T03:47:41;10.10;79.40
13458;DHT22;6801;53.018;11.560;2023-03-19T03:50:10;10.20;79.30
13458;DHT22;6801;53.018;11.560;2023-03-19T03:52:38;10.10;79.40
13458;DHT22;6801;53.018;11.560;2023-03-19T03:55:06;10.10;79.40
13458;DHT22;6801;53.018;11.560;2023-03-19T03:57:33;10.10;79.40
13458;DHT22;6801;53.018;11.560;2023-03-19T04:00:01;10.10;79.20
13458;DHT22;6801;53.018;11.560;2023-03-19T04:02:38;10.10;79.10
13458;DHT22;6801;53.018;11.560;2023-03-19T04:05:09;10.10;79.00
13458;DHT22;6801;53.018;11.560;2023-03-19T04:07:37;10.10;78.90
13458;DHT22;6801;53.018;11.560;2023-03-19T04:10:06;10.10;78.80
13458;DHT22;6801;53.018;11.560;2023-03-19T04:12:34;10.00;78.80
13458;DHT22;6801;53.018;11.560;2023-03-19T04:15:02;10.00;78.70
13458;DHT22;6801;53.018;11.560;2023-03-19T04:17:29;10.00;78.70
13458;DHT22;6801;53.018;11.560;2023-03-19T04:19:56;10.00;78.70
13458;DHT22;6801;53.018;11.560;2023-03-19T04:22:24;10.00;78.70
13458;DHT22;6801;53.018;11.560;2023-03-19T04:24:51;10.00;78.60
13458;DHT22;6801;53.018;11.560;2023-03-19T04:27:18;10.00;78.50
13458;DHT22;6801;53.018;11.560;2023-03-19T04:29:46;10.00;78.50
13458;DHT22;6801;53.018;11.560;2023-03-19T04:32:14;10.00;78.40
13458;DHT22;6801;53.018;11.560;2023-03-19T04:34:42;10.00;78.40
13458;DHT22;6801;53.018;11.560;2023-03-19T04:37:09;9.90;78.40
13458;DHT22;6801;53.018;11.560;2023-03-19T04:39:45;9.90;78.60
13458;DHT22;6801;53.018;11.560;2023-03-19T04:42:12;10.00;78.60
13458;DHT22;6801;53.018;11.560;2023-03-19T04:44:49;9.90;78.60
13458;DHT22;6801;53.018;11.560;2023-03-19T04:47:16;9.90;78.70
13458;DHT22;6801;53.018;11.560;2023-03-19T04:49:50;9.90;78.70
13458;DHT22;6801;53.018;11.560;2023-03-19T04:52:18;9.90;78.80
13458;DHT22;6801;53.018;11.560;2023-03-19T04:54:47;9.90;78.70
13458;DHT22;6801;53.018;11.560;2023-03-19T04:57:15;9.90;78.80
13458;DHT22;6801;53.018;11.560;2023-03-19T04:59:43;9.90;78.70
13458;DHT22;6801;53.018;11.560;2023-03-19T05:02:14;9.90;78.80
13458;DHT22;6801;53.018;11.560;2023-03-19T05:04:41;9.90;78.70
13458;DHT22;6801;53.018;11.560;2023-03-19T05:07:12;9.90;78.60
13458;DHT22;6801;53.018;11.560;2023-03-19T05:09:40;9.90;78.60
13458;DHT22;6801;53.018;11.560;2023-03-19T05:12:10;9.90;78.60
13458;DHT22;6801;53.018;11.560;2023-03-19T05:14:43;9.80;78.60
13458;DHT22;6801;53.018;11.560;2023-03-19T05:17:17;9.80;78.60
13458;DHT22;6801;53.018;11.560;2023-03-19T05:19:55;9.80;78.60
13458;DHT22;6801;53.018;11.560;2023-03-19T05:22:22;9.80;78.50
13458;DHT22;6801;53.018;11.560;2023-03-19T05:24:50;9.80;78.50
13458;DHT22;6801;53.018;11.560;2023-03-19T05:27:19;9.80;78.60
13458;DHT22;6801;53.018;11.560;2023-03-19T05:29:57;9.80;78.70
13458;DHT22;6801;53.018;11.560;2023-03-19T05:33:03;9.80;78.70
13458;DHT22;6801;53.018;11.560;2023-03-19T05:35:36;9.80;78.60
13458;DHT22;6801;53.018;11.560;2023-03-19T05:38:09;9.80;78.70
13458;DHT22;6801;53.018;11.560;2023-03-19T05:40:36;9.80;78.60
13458;DHT22;6801;53.018;11.560;2023-03-19T05:43:19;9.80;78.70
13458;DHT22;6801;53.018;11.560;2023-03-19T05:45:49;9.70;78.70
13458;DHT22;6801;53.018;11.560;2023-03-19T05:48:20;9.70;78.80
13458;DHT22;6801;53.018;11.560;2023-03-19T05:50:47;9.70;78.80
13458;DHT22;6801;53.018;11.560;2023-03-19T05:53:20;9.70;78.90
13458;DHT22;6801;53.018;11.560;2023-03-19T05:56:07;9.70;78.90
13458;DHT22;6801;53.018;11.560;2023-03-19T05:58:47;9.70;78.90
13458;DHT22;6801;53.018;11.560;2023-03-19T06:01:19;9.70;78.90
13458;DHT22;6801;53.018;11.560;2023-03-19T06:03:46;9.70;79.00
13458;DHT22;6801;53.018;11.560;2023-03-19T06:06:13;9.70;79.10
13458;DHT22;6801;53.018;11.560;2023-03-19T06:08:43;9.70;79.10
13458;DHT22;6801;53.018;11.560;2023-03-19T06:11:17;9.70;79.20
13458;DHT22;6801;53.018;11.560;2023-03-19T06:13:52;9.70;79.20
13458;DHT22;6801;53.018;11.560;2023-03-19T06:16:19;9.80;79.20
13458;DHT22;6801;53.018;11.560;2023-03-19T06:18:50;9.80;79.20
13458;DHT22;6801;53.018;11.560;2023-03-19T06:21:18;9.70;79.20
13458;DHT22;6801;53.018;11.560;2023-03-19T06:23:45;9.80;79.20
13458;DHT22;6801;53.018;11.560;2023-03-19T06:26:16;9.80;79.20
13458;DHT22;6801;53.018;11.560;2023-03-19T06:28:57;9.80;79.20
13458;DHT22;6801;53.018;11.560;2023-03-19T06:31:24;9.80;79.20
13458;DHT22;6801;53.018;11.560;2023-03-19T06:33:52;9.80;79.20
13458;DHT22;6801;53.018;11.560;2023-03-19T06:36:20;9.80;79.20
13458;DHT22;6801;53.018;11.560;2023-03-19T06:38:47;9.90;79.20
13458;DHT22;6801;53.018;11.560;2023-03-19T06:41:14;9.90;79.20
13458;DHT22;6801;53.018;11.560;2023-03-19T06:43:41;9.90;79.20
13458;DHT22;6801;53.018;11.560;2023-03-19T06:46:09;9.90;79.10
13458;DHT22;6801;53.018;11.560;2023-03-19T06:48:36;9.90;79.10
13458;DHT22;6801;53.018;11.560;2023-03-19T06:51:05;10.00;79.10
13458;DHT22;6801;53.018;11.560;2023-03-19T06:53:33;9.90;79.20
13458;DHT22;6801;53.018;11.560;2023-03-19T06:56:00;10.00;79.30
13458;DHT22;6801;53.018;11.560;2023-03-19T06:58:27;10.00;79.30
13458;DHT22;6801;53.018;11.560;2023-03-19T07:00:54;10.00;79.40
13458;DHT22;6801;53.018;11.560;2023-03-19T07:03:22;10.00;79.40
13458;DHT22;6801;53.018;11.560;2023-03-19T07:05:49;10.00;79.50
13458;DHT22;6801;53.018;11.560;2023-03-19T07:08:17;10.10;79.60
13458;DHT22;6801;53.018;11.560;2023-03-19T07:10:44;10.10;79.60
13458;DHT22;6801;53.018;11.560;2023-03-19T07:13:11;10.10;79.60
13458;DHT22;6801;53.018;11.560;2023-03-19T07:15:38;10.10;79.50
13458;DHT22;6801;53.018;11.560;2023-03-19T07:18:05;10.20;79.50
13458;DHT22;6801;53.018;11.560;2023-03-19T07:20:33;10.20;79.50
13458;DHT22;6801;53.018;11.560;2023-03-19T07:23:00;10.20;79.50
13458;DHT22;6801;53.018;11.560;2023-03-19T07:25:28;10.20;79.50
13458;DHT22;6801;53.018;11.560;2023-03-19T07:27:55;10.30;79.40
13458;DHT22;6801;53.018;11.560;2023-03-19T07:30:22;10.30;79.50
13458;DHT22;6801;53.018;11.560;2023-03-19T07:32:49;10.40;79.60
13458;DHT22;6801;53.018;11.560;2023-03-19T07:35:16;10.40;79.60
13458;DHT22;6801;53.018;11.560;2023-03-19T07:37:44;10.40;79.70
13458;DHT22;6801;53.018;11.560;2023-03-19T07:40:11;10.50;79.70
13458;DHT22;6801;53.018;11.560;2023-03-19T07:42:38;10.50;79.80
13458;DHT22;6801;53.018;11.560;2023-03-19T07:45:07;10.50;79.90
13458;DHT22;6801;53.018;11.560;2023-03-19T07:47:34;10.60;80.00
13458;DHT22;6801;53.018;11.560;2023-03-19T07:50:01;10.70;80.00
13458;DHT22;6801;53.018;11.560;2023-03-19T07:52:28;10.60;80.10
13458;DHT22;6801;53.018;11.560;2023-03-19T07:54:58;10.70;80.20
13458;DHT22;6801;53.018;11.560;2023-03-19T07:57:26;10.70;80.20
13458;DHT22;6801;53.018;11.560;2023-03-19T07:59:53;10.80;80.20
13458;DHT22;6801;53.018;11.560;2023-03-19T08:02:20;10.80;80.10
13458;DHT22;6801;53.018;11.560;2023-03-19T08:04:47;10.90;80.30
13458;DHT22;6801;53.018;11.560;2023-03-19T08:07:13;10.90;80.30
13458;DHT22;6801;53.018;11.560;2023-03-19T08:09:41;11.00;80.40
13458;DHT22;6801;53.018;11.560;2023-03-19T08:12:10;11.00;80.50
13458;DHT22;6801;53.018;11.560;2023-03-19T08:14:37;11.00;80.50
13458;DHT22;6801;53.018;11.560;2023-03-19T08:17:04;11.10;80.50
13458;DHT22;6801;53.018;11.560;2023-03-19T08:19:31;11.20;80.70
13458;DHT22;6801;53.018;11.560;2023-03-19T08:21:57;11.20;80.90
13458;DHT22;6801;53.018;11.560;2023-03-19T08:24:24;11.30;80.90
13458;DHT22;6801;53.018;11.560;2023-03-19T08:26:51;11.30;81.00
13458;DHT22;6801;53.018;11.560;2023-03-19T08:29:20;11.40;80.90
13458;DHT22;6801;53.018;11.560;2023-03-19T08:31:47;11.40;80.90
13458;DHT22;6801;53.018;11.560;2023-03-19T08:34:14;11.50;80.90
13458;DHT22;6801;53.018;11.560;2023-03-19T08:36:40;11.50;81.00
13458;DHT22;6801;53.018;11.560;2023-03-19T08:39:07;11.60;81.20
13458;DHT22;6801;53.018;11.560;2023-03-19T08:41:35;11.60;81.20
13458;DHT22;6801;53.018;11.560;2023-03-19T08:44:02;11.70;81.00
13458;DHT22;6801;53.018;11.560;2023-03-19T08:46:30;11.70;80.90
13458;DHT22;6801;53.018;11.560;2023-03-19T08:48:58;11.80;81.10
13458;DHT22;6801;53.018;11.560;2023-03-19T08:51:25;11.80;81.30
13458;DHT22;6801;53.018;11.560;2023-03-19T08:53:53;11.90;81.30
13458;DHT22;6801;53.018;11.560;2023-03-19T08:56:20;12.00;81.50
13458;DHT22;6801;53.018;11.560;2023-03-19T08:58:47;12.10;81.10
13458;DHT22;6801;53.018;11.560;2023-03-19T09:01:14;12.10;81.20
13458;DHT22;6801;53.018;11.560;2023-03-19T09:03:43;12.20;81.10
13458;DHT22;6801;53.018;11.560;2023-03-19T09:06:12;12.20;80.90
13458;DHT22;6801;53.018;11.560;2023-03-19T09:08:40;12.30;81.20
13458;DHT22;6801;53.018;11.560;2023-03-19T09:11:07;12.40;81.20
13458;DHT22;6801;53.018;11.560;2023-03-19T09:13:35;12.40;81.00
13458;DHT22;6801;53.018;11.560;2023-03-19T09:16:03;12.50;81.10
13458;DHT22;6801;53.018;11.560;2023-03-19T09:18:31;12.50;81.00
13458;DHT22;6801;53.018;11.560;2023-03-19T09:21:00;12.60;81.00
13458;DHT22;6801;53.018;11.560;2023-03-19T09:23:27;12.60;81.00
13458;DHT22;6801;53.018;11.560;2023-03-19T09:25:54;12.60;80.80
13458;DHT22;6801;53.018;11.560;2023-03-19T09:28:21;12.70;81.00
13458;DHT22;6801;53.018;11.560;2023-03-19T09:30:49;12.80;80.90
13458;DHT22;6801;53.018;11.560;2023-03-19T09:33:18;12.90;80.90
13458;DHT22;6801;53.018;11.560;2023-03-19T09:35:48;13.00;80.80
13458;DHT22;6801;53.018;11.560;2023-03-19T09:38:17;13.10;80.70
13458;DHT22;6801;53.018;11.560;2023-03-19T09:40:46;13.10;80.40
13458;DHT22;6801;53.018;11.560;2023-03-19T09:43:35;13.20;80.20
13458;DHT22;6801;53.018;11.560;2023-03-19T09:46:05;13.20;80.10
13458;DHT22;6801;53.018;11.560;2023-03-19T09:48:41;13.30;80.20
13458;DHT22;6801;53.018;11.560;2023-03-19T09:51:17;13.40;80.10
13458;DHT22;6801;53.018;11.560;2023-03-19T09:53:51;13.50;80.00
13458;DHT22;6801;53.018;11.560;2023-03-19T09:56:19;13.50;79.70
13458;DHT22;6801;53.018;11.560;2023-03-19T09:58:46;13.50;79.60
13458;DHT22;6801;53.018;11.560;2023-03-19T10:01:23;13.60;79.60
13458;DHT22;6801;53.018;11.560;2023-03-19T10:04:04;13.70;79.60
13458;DHT22;6801;53.018;11.560;2023-03-19T10:06:34;13.70;79.20
13458;DHT22;6801;53.018;11.560;2023-03-19T10:09:24;13.80;78.90
13458;DHT22;6801;53.018;11.560;2023-03-19T10:12:01;13.80;78.60
13458;DHT22;6801;53.018;11.560;2023-03-19T10:14:44;13.80;78.60
13458;DHT22;6801;53.018;11.560;2023-03-19T10:17:16;13.90;78.40
13458;DHT22;6801;53.018;11.560;2023-03-19T10:19:48;13.90;78.10
13458;DHT22;6801;53.018;11.560;2023-03-19T10:22:20;13.90;78.30
13458;DHT22;6801;53.018;11.560;2023-03-19T10:24:49;14.00;78.20
13458;DHT22;6801;53.018;11.560;2023-03-19T10:27:19;14.00;77.90
13458;DHT22;6801;53.018;11.560;2023-03-19T10:29:46;14.00;77.50
13458;DHT22;6801;53.018;11.560;2023-03-19T10:32:18;14.00;77.20
13458;DHT22;6801;53.018;11.560;2023-03-19T10:34:46;14.10;77.00
13458;DHT22;6801;53.018;11.560;2023-03-19T10:37:16;14.10;76.90
13458;DHT22;6801;53.018;11.560;2023-03-19T10:39:46;14.10;76.90
13458;DHT22;6801;53.018;11.560;2023-03-19T10:42:41;14.10;77.00
13458;DHT22;6801;53.018;11.560;2023-03-19T10:45:19;14.10;77.10
13458;DHT22;6801;53.018;11.560;2023-03-19T10:47:47;14.20;77.10
13458;DHT22;6801;53.018;11.560;2023-03-19T10:50:16;14.20;77.30
13458;DHT22;6801;53.018;11.560;2023-03-19T10:52:45;14.30;77.40
13458;DHT22;6801;53.018;11.560;2023-03-19T10:55:17;14.40;77.30
13458;DHT22;6801;53.018;11.560;2023-03-19T10:57:55;14.40;77.00
13458;DHT22;6801;53.018;11.560;2023-03-19T11:00:24;14.50;77.00
13458;DHT22;6801;53.018;11.560;2023-03-19T11:02:54;14.50;77.10
13458;DHT22;6801;53.018;11.560;2023-03-19T11:05:23;14.50;76.60
13458;DHT22;6801;53.018;11.560;2023-03-19T11:07:55;14.60;76.20
13458;DHT22;6801;53.018;11.560;2023-03-19T11:10:24;14.60;76.20
13458;DHT22;6801;53.018;11.560;2023-03-19T11:12:55;14.60;76.30
13458;DHT22;6801;53.018;11.560;2023-03-19T11:15:28;14.70;76.20
13458;DHT22;6801;53.018;11.560;2023-03-19T11:17:57;14.70;76.00
13458;DHT22;6801;53.018;11.560;2023-03-19T11:20:28;14.70;75.90
13458;DHT22;6801;53.018;11.560;2023-03-19T11:22:57;14.80;75.60
13458;DHT22;6801;53.018;11.560;2023-03-19T11:25:29;14.80;75.70
13458;DHT22;6801;53.018;11.560;2023-03-19T11:27:59;14.90;75.40
13458;DHT22;6801;53.018;11.560;2023-03-19T11:30:32;14.90;75.20
13458;DHT22;6801;53.018;11.560;2023-03-19T11:33:38;14.90;75.00
13458;DHT22;6801;53.018;11.560;2023-03-19T11:36:12;14.90;75.00
13458;DHT22;6801;53.018;11.560;2023-03-19T11:38:52;14.90;75.00
13458;DHT22;6801;53.018;11.560;2023-03-19T11:41:28;15.00;74.80
13458;DHT22;6801;53.018;11.560;2023-03-19T11:44:04;15.00;74.90
13458;DHT22;6801;53.018;11.560;2023-03-19T11:46:37;15.00;74.80
13458;DHT22;6801;53.018;11.560;2023-03-19T11:49:34;15.00;74.80
13458;DHT22;6801;53.018;11.560;2023-03-19T11:52:11;15.00;74.90
13458;DHT22;6801;53.018;11.560;2023-03-19T11:54:48;15.00;75.00
13458;DHT22;6801;53.018;11.560;2023-03-19T11:57:26;15.00;74.80
13458;DHT22;6801;53.018;11.560;2023-03-19T12:00:14;15.00;74.90
13458;DHT22;6801;53.018;11.560;2023-03-19T12:05:52;15.00;75.00
13458;DHT22;6801;53.018;11.560;2023-03-19T12:08:30;15.10;75.10
13458;DHT22;6801;53.018;11.560;2023-03-19T12:11:06;15.10;75.20
13458;DHT22;6801;53.018;11.560;2023-03-19T12:14:02;15.20;75.20
13458;DHT22;6801;53.018;11.560;2023-03-19T12:16:44;15.20;75.10
13458;DHT22;6801;53.018;11.560;2023-03-19T12:19:29;15.20;75.20
13458;DHT22;6801;53.018;11.560;2023-03-19T12:22:09;15.30;74.80
13458;DHT22;6801;53.018;11.560;2023-03-19T12:24:53;15.30;74.70
13458;DHT22;6801;53.018;11.560;2023-03-19T12:27:29;15.30;74.70
13458;DHT22;6801;53.018;11.560;2023-03-19T12:30:03;15.30;74.80
13458;DHT22;6801;53.018;11.560;2023-03-19T12:32:49;15.40;74.90
13458;DHT22;6801;53.018;11.560;2023-03-19T12:35:24;15.40;74.80
13458;DHT22;6801;53.018;11.560;2023-03-19T12:38:00;15.40;74.80
13458;DHT22;6801;53.018;11.560;2023-03-19T12:40:32;15.50;74.80
13458;DHT22;6801;53.018;11.560;2023-03-19T12:43:05;15.50;74.90
13458;DHT22;6801;53.018;11.560;2023-03-19T12:45:35;15.60;74.90
13458;DHT22;6801;53.018;11.560;2023-03-19T12:48:08;15.70;74.90
13458;DHT22;6801;53.018;11.560;2023-03-19T12:50:38;15.70;74.90
13458;DHT22;6801;53.018;11.560;2023-03-19T12:53:10;15.80;74.70
13458;DHT22;6801;53.018;11.560;2023-03-19T12:55:44;15.80;74.60
13458;DHT22;6801;53.018;11.560;2023-03-19T12:58:19;16.00;74.50
13458;DHT22;6801;53.018;11.560;2023-03-19T13:00:52;16.00;74.10
13458;DHT22;6801;53.018;11.560;2023-03-19T13:03:29;16.10;74.00
13458;DHT22;6801;53.018;11.560;2023-03-19T13:06:05;16.20;74.00
13458;DHT22;6801;53.018;11.560;2023-03-19T13:08:38;16.30;73.80
13458;DHT22;6801;53.018;11.560;2023-03-19T13:11:11;16.30;73.50
13458;DHT22;6801;53.018;11.560;2023-03-19T13:13:41;16.40;73.30
13458;DHT22;6801;53.018;11.560;2023-03-19T13:16:26;16.40;73.10
13458;DHT22;6801;53.018;11.560;2023-03-19T13:19:03;16.50;72.90
13458;DHT22;6801;53.018;11.560;2023-03-19T13:21:34;16.50;72.70
13458;DHT22;6801;53.018;11.560;2023-03-19T13:24:08;16.50;72.10
13458;DHT22;6801;53.018;11.560;2023-03-19T13:26:38;16.60;72.00
13458;DHT22;6801;53.018;11.560;2023-03-19T13:29:11;16.60;71.60
13458;DHT22;6801;53.018;11.560;2023-03-19T13:31:41;16.60;71.30
13458;DHT22;6801;53.018;11.560;2023-03-19T13:34:20;16.60;71.20
13458;DHT22;6801;53.018;11.560;2023-03-19T13:36:52;16.70;70.50
13458;DHT22;6801;53.018;11.560;2023-03-19T13:39:25;16.70;70.30
13458;DHT22;6801;53.018;11.560;2023-03-19T13:44:53;16.70;70.40
13458;DHT22;6801;53.018;11.560;2023-03-19T13:47:38;16.70;70.10
13458;DHT22;6801;53.018;11.560;2023-03-19T13:50:25;16.70;70.00
13458;DHT22;6801;53.018;11.560;2023-03-19T13:52:54;16.80;70.80
13458;DHT22;6801;53.018;11.560;2023-03-19T13:55:48;16.80;71.10
13458;DHT22;6801;53.018;11.560;2023-03-19T13:58:19;16.80;71.20
13458;DHT22;6801;53.018;11.560;2023-03-19T14:01:04;16.80;70.70
13458;DHT22;6801;53.018;11.560;2023-03-19T14:03:33;16.90;71.10
13458;DHT22;6801;53.018;11.560;2023-03-19T14:06:03;16.90;71.20
13458;DHT22;6801;53.018;11.560;2023-03-19T14:08:39;17.00;71.40
13458;DHT22;6801;53.018;11.560;2023-03-19T14:11:09;17.00;71.30
13458;DHT22;6801;53.018;11.560;2023-03-19T14:13:39;17.10;71.00
13458;DHT22;6801;53.018;11.560;2023-03-19T14:16:14;17.10;70.50
13458;DHT22;6801;53.018;11.560;2023-03-19T14:18:43;17.10;70.50
13458;DHT22;6801;53.018;11.560;2023-03-19T14:21:14;17.20;70.50
13458;DHT22;6801;53.018;11.560;2023-03-19T14:23:51;17.20;70.50
13458;DHT22;6801;53.018;11.560;2023-03-19T14:26:20;17.30;70.50
13458;DHT22;6801;53.018;11.560;2023-03-19T14:28:53;17.30;70.50
13458;DHT22;6801;53.018;11.560;2023-03-19T14:31:25;17.40;70.40
13458;DHT22;6801;53.018;11.560;2023-03-19T14:33:58;17.40;70.60
13458;DHT22;6801;53.018;11.560;2023-03-19T14:36:29;17.50;70.80
13458;DHT22;6801;53.018;11.560;2023-03-19T14:38:59;17.50;69.90
13458;DHT22;6801;53.018;11.560;2023-03-19T14:41:31;17.50;69.10
13458;DHT22;6801;53.018;11.560;2023-03-19T14:44:26;17.50;69.10
13458;DHT22;6801;53.018;11.560;2023-03-19T14:47:15;17.60;69.00
13458;DHT22;6801;53.018;11.560;2023-03-19T14:52:55;17.50;69.70
13458;DHT22;6801;53.018;11.560;2023-03-19T14:55:32;17.60;70.20
13458;DHT22;6801;53.018;11.560;2023-03-19T14:57:59;17.70;69.40
13458;DHT22;6801;53.018;11.560;2023-03-19T15:00:27;17.70;68.70
13458;DHT22;6801;53.018;11.560;2023-03-19T15:02:55;17.70;68.70
13458;DHT22;6801;53.018;11.560;2023-03-19T15:05:24;17.60;69.10
13458;DHT22;6801;53.018;11.560;2023-03-19T15:07:56;17.60;69.00
13458;DHT22;6801;53.018;11.560;2023-03-19T15:10:28;17.60;68.40
13458;DHT22;6801;53.018;11.560;2023-03-19T15:13:22;17.60;68.50
13458;DHT22;6801;53.018;11.560;2023-03-19T15:16:14;17.60;67.40
13458;DHT22;6801;53.018;11.560;2023-03-19T15:18:46;17.50;67.50
13458;DHT22;6801;53.018;11.560;2023-03-19T15:21:14;17.50;67.80
13458;DHT22;6801;53.018;11.560;2023-03-19T15:23:45;17.50;67.70
13458;DHT22;6801;53.018;11.560;2023-03-19T15:26:12;17.50;67.50
13458;DHT22;6801;53.018;11.560;2023-03-19T15:28:47;17.50;68.10
13458;DHT22;6801;53.018;11.560;2023-03-19T15:31:15;17.50;67.90
13458;DHT22;6801;53.018;11.560;2023-03-19T15:33:43;17.50;67.50
13458;DHT22;6801;53.018;11.560;2023-03-19T15:36:13;17.50;67.50
13458;DHT22;6801;53.018;11.560;2023-03-19T15:38:46;17.40;67.60
13458;DHT22;6801;53.018;11.560;2023-03-19T15:41:16;17.40;67.50
13458;DHT22;6801;53.018;11.560;2023-03-19T15:43:44;17.40;67.50
13458;DHT22;6801;53.018;11.560;2023-03-19T15:46:13;17.40;67.30
13458;DHT22;6801;53.018;11.560;2023-03-19T15:48:43;17.40;67.10
13458;DHT22;6801;53.018;11.560;2023-03-19T15:51:13;17.30;67.20
13458;DHT22;6801;53.018;11.560;2023-03-19T15:53:40;17.30;66.90
13458;DHT22;6801;53.018;11.560;2023-03-19T15:56:12;17.30;66.70
13458;DHT22;6801;53.018;11.560;2023-03-19T15:58:43;17.30;66.70
13458;DHT22;6801;53.018;11.560;2023-03-19T16:01:12;17.30;66.40
13458;DHT22;6801;53.018;11.560;2023-03-19T16:03:42;17.20;66.50
13458;DHT22;6801;53.018;11.560;2023-03-19T16:06:16;17.10;66.50
13458;DHT22;6801;53.018;11.560;2023-03-19T16:08:46;17.10;66.40